Dingxian, China
Current Conditions -  °F | °C
As of 3:00 PM on Monday 22 Dec 2014 (Local Time) from ZBSJ Reporting Station
Clear Clear  
Wind Chill: 50°   Ceiling: Unl
Heat Index: 50°   Visibility: 6mi
Dew Point:   Wind: 7mph
Humidity: 17%   Direction: 190°S
Pressure: 30.21"   Gusts: NA
Location:  38.51°N, 114.99°E
Report Text: ZBSJ 220700Z 19003MPS 170V230 CAVOK 10/M14 Q1023 NOSIG
Loading
Personal Weather Stations






























Interactive Weather Map New forecast layout! Learn more

10-Day Weather Forecast

Advertisements
Track Severe Weather on mobile